Time;durP1;ratioP1;P1;durP2;ratioP2;P2;SDS_P1;SDS_P2;PMS_P1;PMS_P2;Temp;Humidity;BMP_temperature;BMP_pressure;BME280_temperature;BME280_humidity;BME280_pressure;Samples;Min_cycle;Max_cycle;Signal;HPM_P1;HPM_P2
2022/04/08 00:01:12;;;;;;;7.10;0.90;;;6.30;99.90;;;;;;4996882;28;20286;-44
2022/04/08 00:03:39;;;;;;;5.87;1.20;;;6.30;99.90;;;;;;4973402;28;20227;-45
2022/04/08 00:06:07;;;;;;;2.87;1.00;;;6.30;99.90;;;;;;4985762;28;21229;-46
2022/04/08 00:08:34;;;;;;;7.33;1.50;;;6.30;99.90;;;;;;5001683;28;20207;-44
2022/04/08 00:11:01;;;;;;;6.80;1.30;;;6.40;99.90;;;;;;4984685;28;21193;-44
2022/04/08 00:13:28;;;;;;;4.20;1.47;;;6.40;99.90;;;;;;4984817;28;20414;-46
2022/04/08 00:15:56;;;;;;;2.87;1.20;;;6.40;99.90;;;;;;4987293;28;20285;-48
2022/04/08 00:18:23;;;;;;;8.60;1.77;;;6.30;99.90;;;;;;4972840;28;20289;-46
2022/04/08 00:20:50;;;;;;;8.63;1.67;;;6.30;99.90;;;;;;4992708;28;20519;-45
2022/04/08 00:23:17;;;;;;;9.17;1.60;;;6.30;99.90;;;;;;4990450;28;20243;-46
2022/04/08 00:25:44;;;;;;;11.77;2.00;;;6.30;99.90;;;;;;4983489;28;20465;-45
2022/04/08 00:28:11;;;;;;;8.67;1.70;;;6.20;99.90;;;;;;4986133;28;20274;-46
2022/04/08 00:30:37;;;;;;;7.43;1.47;;;6.20;99.90;;;;;;4989557;28;20676;-46
2022/04/08 00:33:06;;;;;;;7.93;1.57;;;6.10;99.90;;;;;;4965621;28;20588;-46
2022/04/08 00:35:33;;;;;;;5.40;1.10;;;6.10;99.90;;;;;;4973684;28;20314;-47
2022/04/08 00:38:00;;;;;;;6.07;1.27;;;6.10;99.90;;;;;;4983290;28;20280;-46
2022/04/08 00:40:26;;;;;;;6.80;1.30;;;6.10;99.90;;;;;;4971397;28;20563;-46
2022/04/08 00:42:53;;;;;;;9.53;1.43;;;6.10;99.90;;;;;;4993400;28;20207;-46
2022/04/08 00:45:20;;;;;;;4.40;1.20;;;6.10;99.90;;;;;;5000367;28;20725;-46
2022/04/08 00:47:48;;;;;;;4.00;1.20;;;6.10;99.90;;;;;;4981764;28;20314;-46
2022/04/08 00:50:19;;;;;;;9.60;1.13;;;6.10;99.90;;;;;;4972817;28;20279;-47
2022/04/08 00:52:46;;;;;;;6.83;1.43;;;6.00;99.90;;;;;;4999988;28;20210;-45
2022/04/08 00:55:13;;;;;;;4.53;1.67;;;6.10;99.90;;;;;;4968266;28;20303;-45
2022/04/08 00:57:41;;;;;;;5.73;1.20;;;6.00;99.90;;;;;;4975060;28;20209;-45
2022/04/08 01:00:10;;;;;;;6.83;1.17;;;6.00;99.90;;;;;;4993838;28;20243;-45
2022/04/08 01:02:37;;;;;;;3.90;1.23;;;6.00;99.90;;;;;;4970294;28;20229;-47
2022/04/08 01:05:05;;;;;;;8.63;1.40;;;6.00;99.90;;;;;;4982974;28;20238;-46
2022/04/08 01:07:33;;;;;;;6.97;1.47;;;6.10;99.90;;;;;;4984589;28;20278;-47
2022/04/08 01:10:00;;;;;;;7.90;1.30;;;6.00;99.90;;;;;;4991954;28;20208;-45
2022/04/08 01:12:27;;;;;;;5.33;1.20;;;6.00;99.90;;;;;;4977421;28;20219;-46
2022/04/08 01:14:57;;;;;;;9.40;1.77;;;6.00;99.90;;;;;;4997403;28;20332;-45
2022/04/08 01:17:24;;;;;;;3.33;1.07;;;6.00;99.90;;;;;;4980674;28;20221;-50
2022/04/08 01:19:51;;;;;;;2.03;0.90;;;6.00;99.90;;;;;;5006046;28;20245;-47
2022/04/08 01:22:19;;;;;;;6.57;1.73;;;6.00;99.90;;;;;;4975950;28;20217;-48
2022/04/08 01:24:50;;;;;;;5.83;1.37;;;6.00;99.90;;;;;;4983704;28;20222;-47
2022/04/08 01:27:19;;;;;;;3.87;1.20;;;6.00;99.90;;;;;;4980242;28;20295;-48
2022/04/08 01:29:47;;;;;;;5.97;1.20;;;6.00;99.90;;;;;;4987582;28;20203;-46
2022/04/08 01:32:15;;;;;;;1.77;0.93;;;6.00;99.90;;;;;;5002642;28;20219;-43
2022/04/08 01:34:42;;;;;;;5.57;0.93;;;6.00;99.90;;;;;;4989261;28;20223;-49
2022/04/08 01:37:09;;;;;;;2.17;0.93;;;5.90;99.90;;;;;;4984965;28;20220;-47
2022/04/08 01:39:37;;;;;;;6.33;1.30;;;5.80;99.90;;;;;;4985588;28;20206;-49
2022/04/08 01:42:04;;;;;;;3.50;0.97;;;5.80;99.90;;;;;;4973303;28;20253;-45
2022/04/08 01:44:32;;;;;;;2.60;1.20;;;5.80;99.90;;;;;;4976142;28;20388;-49
2022/04/08 01:46:59;;;;;;;5.70;1.20;;;6.00;99.90;;;;;;4996275;28;20241;-45
2022/04/08 01:49:26;;;;;;;3.43;1.00;;;5.90;99.90;;;;;;4982193;28;20242;-50
2022/04/08 01:51:53;;;;;;;1.57;0.90;;;5.90;99.90;;;;;;4982777;28;20773;-49
2022/04/08 01:54:20;;;;;;;5.00;1.53;;;5.90;99.90;;;;;;4986932;28;20233;-47
2022/04/08 01:56:47;;;;;;;5.67;1.30;;;6.00;99.90;;;;;;4983777;28;20207;-51
2022/04/08 01:59:14;;;;;;;4.80;1.00;;;5.90;99.90;;;;;;4981486;28;20225;-47
2022/04/08 02:01:43;;;;;;;2.20;0.80;;;5.90;99.90;;;;;;4979254;28;20218;-47
2022/04/08 02:04:10;;;;;;;3.40;1.47;;;5.80;99.90;;;;;;4988903;28;20301;-44
2022/04/08 02:06:40;;;;;;;5.10;0.90;;;5.30;99.90;;;;;;4995052;28;21187;-49
2022/04/08 02:09:08;;;;;;;2.73;0.77;;;5.00;99.90;;;;;;4969151;28;20213;-45
2022/04/08 02:11:35;;;;;;;2.00;0.70;;;4.90;99.90;;;;;;4986282;28;20274;-50
2022/04/08 02:14:02;;;;;;;5.80;0.90;;;4.80;99.90;;;;;;4974235;28;20228;-46
2022/04/08 02:16:29;;;;;;;8.60;1.00;;;4.80;99.90;;;;;;4996711;28;20296;-46
2022/04/08 02:18:58;;;;;;;1.37;0.53;;;4.80;99.90;;;;;;4987321;28;20290;-45
2022/04/08 02:21:25;;;;;;;2.83;0.90;;;4.80;99.90;;;;;;4987353;28;20291;-46
2022/04/08 02:23:54;;;;;;;1.60;0.60;;;4.80;99.90;;;;;;4986231;28;20789;-45
2022/04/08 02:26:21;;;;;;;4.33;1.13;;;4.80;99.90;;;;;;4967259;28;20246;-44
2022/04/08 02:28:48;;;;;;;2.43;0.70;;;4.80;99.90;;;;;;4993139;28;20236;-46
2022/04/08 02:31:16;;;;;;;3.20;1.00;;;4.70;99.90;;;;;;4964456;28;20279;-45
2022/04/08 02:33:42;;;;;;;3.60;0.80;;;4.60;99.90;;;;;;4976756;28;20225;-45
2022/04/08 02:36:11;;;;;;;3.17;1.00;;;4.70;99.90;;;;;;4980008;28;20204;-47
2022/04/08 02:38:38;;;;;;;6.83;1.00;;;4.60;99.90;;;;;;4977696;28;20517;-46
2022/04/08 02:41:04;;;;;;;4.90;1.07;;;4.70;99.90;;;;;;4988501;28;20306;-46
2022/04/08 02:43:31;;;;;;;2.67;0.60;;;4.70;99.90;;;;;;4993356;28;20210;-47
2022/04/08 02:45:58;;;;;;;3.13;1.03;;;4.80;99.90;;;;;;4982435;28;20313;-45
2022/04/08 02:48:25;;;;;;;4.40;1.00;;;4.80;99.90;;;;;;4993094;28;20573;-46
2022/04/08 02:50:52;;;;;;;4.43;0.67;;;4.90;99.90;;;;;;4982825;28;21801;-46
2022/04/08 02:53:20;;;;;;;4.47;0.83;;;4.90;99.90;;;;;;4970676;28;20527;-46
2022/04/08 02:55:47;;;;;;;4.73;0.90;;;4.90;99.90;;;;;;4957905;28;20243;-46
2022/04/08 02:58:14;;;;;;;3.07;1.13;;;4.90;99.90;;;;;;5007732;28;20621;-46
2022/04/08 03:00:41;;;;;;;3.53;1.23;;;4.90;99.90;;;;;;4972858;28;20202;-46
2022/04/08 03:03:08;;;;;;;3.53;0.90;;;4.90;99.90;;;;;;4993678;28;20544;-46
2022/04/08 03:05:34;;;;;;;5.07;1.30;;;4.90;99.90;;;;;;4993616;28;20237;-47
2022/04/08 03:08:01;;;;;;;2.20;1.00;;;4.90;99.90;;;;;;4982535;28;20233;-47
2022/04/08 03:10:29;;;;;;;5.40;1.63;;;4.90;99.90;;;;;;4982320;28;20216;-48
2022/04/08 03:12:56;;;;;;;3.70;1.30;;;5.10;99.90;;;;;;4987998;28;20206;-46
2022/04/08 03:15:23;;;;;;;5.40;1.27;;;5.00;99.90;;;;;;4980456;28;20234;-46
2022/04/08 03:17:51;;;;;;;4.13;1.00;;;5.00;99.90;;;;;;4976140;28;20286;-46
2022/04/08 03:20:19;;;;;;;2.60;0.90;;;5.00;99.90;;;;;;4979027;28;20214;-46
2022/04/08 03:22:46;;;;;;;3.97;0.83;;;5.00;99.90;;;;;;4983986;28;20199;-46
2022/04/08 03:25:13;;;;;;;1.63;0.83;;;5.00;99.90;;;;;;4984028;28;20474;-46
2022/04/08 03:27:41;;;;;;;4.80;1.30;;;5.10;99.90;;;;;;4969662;28;20281;-47
2022/04/08 03:30:09;;;;;;;2.77;0.93;;;5.00;99.90;;;;;;4991609;28;20216;-46
2022/04/08 03:32:36;;;;;;;9.00;1.17;;;5.00;99.90;;;;;;4976025;28;20286;-47
2022/04/08 03:35:03;;;;;;;7.77;1.40;;;4.90;99.90;;;;;;4983613;28;20225;-47
2022/04/08 03:37:31;;;;;;;7.20;2.47;;;5.00;99.90;;;;;;4986824;28;20217;-47
2022/04/08 03:39:58;;;;;;;3.07;1.40;;;4.90;99.90;;;;;;4966809;28;20203;-46
2022/04/08 03:42:26;;;;;;;3.50;1.47;;;4.90;99.90;;;;;;4984008;28;20216;-47
2022/04/08 03:44:54;;;;;;;4.20;1.63;;;4.90;99.90;;;;;;4990986;28;20542;-46
2022/04/08 03:47:22;;;;;;;3.67;1.07;;;4.90;99.90;;;;;;4967365;28;20210;-47
2022/04/08 03:49:49;;;;;;;1.93;1.13;;;5.00;99.90;;;;;;4991254;28;20226;-46
2022/04/08 03:52:16;;;;;;;5.37;0.93;;;4.90;99.90;;;;;;4988542;28;20216;-46
2022/04/08 03:54:43;;;;;;;7.83;1.20;;;4.90;99.90;;;;;;4980882;28;20306;-46
2022/04/08 03:57:10;;;;;;;5.90;1.00;;;4.90;99.90;;;;;;4988924;28;20282;-46
2022/04/08 03:59:37;;;;;;;4.97;1.37;;;4.90;99.90;;;;;;4988455;28;20223;-47
2022/04/08 04:02:07;;;;;;;3.93;1.13;;;4.90;99.90;;;;;;4995741;28;20857;-46
2022/04/08 04:04:34;;;;;;;0.97;0.73;;;4.90;99.90;;;;;;4987067;28;20239;-47
2022/04/08 04:07:01;;;;;;;3.53;1.17;;;4.90;99.90;;;;;;4980100;28;20832;-46
2022/04/08 04:09:28;;;;;;;2.53;0.90;;;4.90;99.90;;;;;;4981562;28;20710;-46
2022/04/08 04:11:55;;;;;;;2.73;0.93;;;4.90;99.90;;;;;;4981414;28;20382;-46
2022/04/08 04:14:21;;;;;;;11.27;1.83;;;4.90;99.90;;;;;;4972323;28;20325;-46
2022/04/08 04:16:48;;;;;;;3.10;1.10;;;4.90;99.90;;;;;;5006693;28;20274;-47
2022/04/08 04:19:17;;;;;;;9.70;1.50;;;5.00;99.90;;;;;;4966832;28;20215;-46
2022/04/08 04:21:44;;;;;;;4.30;1.40;;;5.00;99.90;;;;;;4994069;28;20255;-47
2022/04/08 04:24:10;;;;;;;8.10;1.30;;;4.90;99.90;;;;;;4992380;28;20230;-47
2022/04/08 04:26:37;;;;;;;4.53;1.20;;;4.80;99.90;;;;;;4958384;28;20245;-47
2022/04/08 04:29:04;;;;;;;5.17;1.53;;;4.70;99.90;;;;;;4977525;28;20358;-45
2022/04/08 04:31:31;;;;;;;7.77;1.10;;;4.70;99.90;;;;;;4992932;28;20218;-46
2022/04/08 04:33:58;;;;;;;6.20;1.60;;;4.70;99.90;;;;;;4967504;28;20227;-46
2022/04/08 04:36:26;;;;;;;6.33;1.37;;;4.70;99.90;;;;;;4996881;28;20521;-46
2022/04/08 04:38:53;;;;;;;6.57;1.47;;;4.80;99.90;;;;;;4976537;28;20344;-47
2022/04/08 04:41:20;;;;;;;4.67;1.30;;;4.70;99.90;;;;;;4980488;28;20214;-46
2022/04/08 04:43:46;;;;;;;13.03;1.70;;;4.70;99.90;;;;;;4977977;28;20256;-46
2022/04/08 04:46:13;;;;;;;5.40;1.13;;;4.70;99.90;;;;;;4981556;28;20228;-46
2022/04/08 04:48:40;;;;;;;8.63;1.10;;;4.70;99.90;;;;;;4972508;28;20214;-47
2022/04/08 04:51:07;;;;;;;2.23;0.83;;;4.70;99.90;;;;;;4996909;28;20281;-46
2022/04/08 04:53:35;;;;;;;1.63;0.90;;;4.80;99.90;;;;;;4976503;28;20233;-47
2022/04/08 04:56:02;;;;;;;5.77;1.13;;;4.80;99.90;;;;;;4998617;28;20237;-46
2022/04/08 04:58:29;;;;;;;7.30;1.33;;;4.80;99.90;;;;;;4983271;28;20218;-47
2022/04/08 05:00:55;;;;;;;3.60;1.40;;;4.90;99.90;;;;;;4987816;28;20919;-46
2022/04/08 05:03:23;;;;;;;9.77;1.90;;;5.00;99.90;;;;;;4990770;28;20534;-47
2022/04/08 05:05:51;;;;;;;4.23;1.40;;;5.00;99.90;;;;;;4991879;28;20241;-46
2022/04/08 05:08:18;;;;;;;9.73;1.53;;;5.00;99.90;;;;;;4995557;28;20220;-46
2022/04/08 05:10:47;;;;;;;6.37;1.50;;;5.00;99.90;;;;;;4979839;28;20207;-46
2022/04/08 05:13:13;;;;;;;5.30;1.43;;;4.90;99.90;;;;;;4978094;28;20285;-45
2022/04/08 05:15:42;;;;;;;5.47;1.67;;;4.90;99.90;;;;;;4982901;28;20300;-47
2022/04/08 05:18:09;;;;;;;5.43;1.00;;;4.80;99.90;;;;;;4987464;28;20244;-46
2022/04/08 05:20:36;;;;;;;2.67;1.00;;;4.70;99.90;;;;;;4991087;28;20293;-47
2022/04/08 05:23:03;;;;;;;2.07;0.80;;;4.50;99.90;;;;;;5013479;28;20707;-46
2022/04/08 05:25:30;;;;;;;1.07;0.70;;;4.30;99.90;;;;;;4981631;28;20237;-46
2022/04/08 05:27:58;;;;;;;4.83;0.93;;;4.10;99.90;;;;;;4986295;28;20231;-46
2022/04/08 05:30:25;;;;;;;4.30;0.87;;;4.30;99.90;;;;;;4979934;28;20288;-47
2022/04/08 05:32:52;;;;;;;3.20;0.93;;;4.40;99.90;;;;;;4992348;28;20220;-46
2022/04/08 05:35:19;;;;;;;1.73;0.90;;;4.50;99.90;;;;;;4972144;28;20235;-47
2022/04/08 05:37:48;;;;;;;2.93;1.30;;;4.60;99.90;;;;;;4995695;28;20282;-46
2022/04/08 05:40:17;;;;;;;4.93;1.30;;;4.70;99.90;;;;;;4987321;28;20282;-46
2022/04/08 05:42:45;;;;;;;5.17;1.63;;;4.80;99.90;;;;;;4999614;28;20238;-45
2022/04/08 05:45:14;;;;;;;4.83;1.60;;;4.90;99.90;;;;;;4978319;28;20230;-46
2022/04/08 05:47:41;;;;;;;4.23;1.50;;;4.90;99.90;;;;;;4994653;28;20237;-46
2022/04/08 05:50:08;;;;;;;6.33;1.57;;;5.00;99.90;;;;;;4979929;28;20210;-46
2022/04/08 05:52:36;;;;;;;5.83;1.20;;;4.90;99.90;;;;;;4988155;28;20282;-47
2022/04/08 05:55:03;;;;;;;2.43;1.13;;;4.90;99.90;;;;;;5002105;28;20280;-46
2022/04/08 05:57:34;;;;;;;2.20;1.10;;;4.80;99.90;;;;;;4988581;28;20411;-47
2022/04/08 06:00:01;;;;;;;2.53;0.83;;;4.80;99.90;;;;;;4980359;28;20208;-46
2022/04/08 06:02:29;;;;;;;5.57;0.90;;;4.80;99.90;;;;;;4983992;28;20304;-47
2022/04/08 06:04:56;;;;;;;1.70;1.10;;;4.80;99.90;;;;;;4989679;28;20298;-46
2022/04/08 06:07:25;;;;;;;2.13;1.20;;;4.80;99.90;;;;;;4986552;28;20226;-46
2022/04/08 06:09:51;;;;;;;2.00;0.83;;;4.80;99.90;;;;;;4982745;28;20207;-46
2022/04/08 06:12:18;;;;;;;4.53;0.77;;;4.80;99.90;;;;;;4985080;28;20565;-46
2022/04/08 06:14:45;;;;;;;2.97;1.03;;;4.80;99.90;;;;;;4976756;28;20328;-48
2022/04/08 06:17:12;;;;;;;3.17;1.20;;;4.90;99.90;;;;;;4985025;28;20278;-47
2022/04/08 06:19:45;;;;;;;5.60;0.87;;;4.90;99.90;;;;;;4994509;28;20284;-46
2022/04/08 06:22:12;;;;;;;1.30;0.97;;;4.90;99.90;;;;;;4965098;28;20325;-46
2022/04/08 06:24:38;;;;;;;5.07;1.40;;;4.80;99.90;;;;;;4995614;28;20437;-46
2022/04/08 06:27:06;;;;;;;6.57;1.57;;;4.80;99.90;;;;;;4986488;28;20978;-45
2022/04/08 06:29:33;;;;;;;1.73;0.93;;;4.80;99.90;;;;;;4988382;28;20239;-46
2022/04/08 06:31:59;;;;;;;3.93;0.80;;;4.80;99.90;;;;;;4979685;28;20211;-44
2022/04/08 06:34:27;;;;;;;2.40;1.13;;;4.80;99.90;;;;;;4983935;28;20238;-46
2022/04/08 06:36:55;;;;;;;2.20;1.30;;;4.80;99.90;;;;;;4980574;28;20529;-45
2022/04/08 06:39:22;;;;;;;3.93;1.57;;;4.80;99.90;;;;;;4992359;28;20302;-46
2022/04/08 06:41:49;;;;;;;2.10;1.47;;;5.00;99.90;;;;;;4996132;28;20209;-46
2022/04/08 06:44:16;;;;;;;4.37;1.20;;;5.00;99.90;;;;;;4983201;28;20240;-45
2022/04/08 06:46:43;;;;;;;3.27;1.30;;;5.00;99.90;;;;;;4984441;28;20233;-46
2022/04/08 06:49:10;;;;;;;1.57;1.10;;;4.90;99.90;;;;;;4991826;28;20218;-45
2022/04/08 06:51:36;;;;;;;3.70;1.40;;;4.90;99.90;;;;;;4984517;28;20205;-46
2022/04/08 06:54:05;;;;;;;2.33;1.20;;;4.90;99.90;;;;;;4984467;28;20234;-44
2022/04/08 06:56:31;;;;;;;3.10;1.50;;;4.90;99.90;;;;;;5003738;28;20196;-46
2022/04/08 06:58:58;;;;;;;3.60;1.30;;;4.90;99.90;;;;;;4978615;28;20605;-45
2022/04/08 07:01:26;;;;;;;4.17;1.10;;;4.90;99.90;;;;;;4976612;28;20633;-46
2022/04/08 07:03:53;;;;;;;6.80;1.20;;;5.00;99.90;;;;;;4996023;28;20302;-47
2022/04/08 07:06:20;;;;;;;4.30;1.77;;;5.00;99.90;;;;;;4968724;28;20490;-45
2022/04/08 07:08:46;;;;;;;4.17;2.70;;;5.10;99.90;;;;;;4965786;28;20210;-46
2022/04/08 07:11:15;;;;;;;4.63;1.97;;;5.20;99.90;;;;;;5003191;28;20210;-46
2022/04/08 07:13:42;;;;;;;7.20;1.50;;;5.30;99.90;;;;;;4976555;28;20227;-46
2022/04/08 07:16:09;;;;;;;4.40;1.27;;;5.30;99.90;;;;;;5002894;28;20206;-45
2022/04/08 07:18:36;;;;;;;2.97;1.57;;;5.30;99.90;;;;;;4969582;28;20789;-46
2022/04/08 07:21:03;;;;;;;3.90;1.23;;;5.30;99.90;;;;;;4978756;28;20211;-46
2022/04/08 07:23:30;;;;;;;2.13;1.27;;;5.30;99.90;;;;;;4978438;28;20238;-45
2022/04/08 07:25:56;;;;;;;3.13;1.50;;;5.50;99.90;;;;;;4993596;28;20298;-47
2022/04/08 07:28:25;;;;;;;2.37;1.33;;;5.50;99.90;;;;;;4981385;28;20540;-46
2022/04/08 07:30:52;;;;;;;5.90;1.40;;;5.50;99.90;;;;;;4989981;28;20301;-46
2022/04/08 07:33:18;;;;;;;2.33;1.40;;;5.60;99.90;;;;;;4973752;28;20337;-47
2022/04/08 07:35:46;;;;;;;7.13;1.90;;;5.60;99.90;;;;;;4974628;28;20207;-46
2022/04/08 07:38:12;;;;;;;3.80;1.40;;;5.60;99.90;;;;;;4975434;28;20211;-46
2022/04/08 07:40:39;;;;;;;1.60;1.23;;;5.70;99.90;;;;;;4995440;28;20298;-46
2022/04/08 07:43:06;;;;;;;2.60;1.20;;;5.70;99.90;;;;;;5010917;28;21032;-47
2022/04/08 07:45:35;;;;;;;4.90;1.50;;;5.80;99.90;;;;;;4981390;28;20301;-46
2022/04/08 07:48:01;;;;;;;4.30;1.80;;;5.90;99.90;;;;;;4963733;28;20235;-46
2022/04/08 07:50:29;;;;;;;1.10;1.00;;;5.90;99.90;;;;;;4968014;28;21075;-46
2022/04/08 07:52:56;;;;;;;5.07;1.50;;;6.10;99.90;;;;;;4981787;28;20428;-45
2022/04/08 07:55:24;;;;;;;1.70;1.13;;;6.40;99.90;;;;;;4980299;28;20230;-46
2022/04/08 07:57:52;;;;;;;2.70;1.30;;;6.30;99.90;;;;;;4997869;28;20207;-45
2022/04/08 08:00:20;;;;;;;4.20;1.40;;;6.30;99.90;;;;;;4983054;28;20545;-46
2022/04/08 08:02:49;;;;;;;3.43;1.60;;;6.20;99.90;;;;;;4977231;28;20593;-46
2022/04/08 08:05:16;;;;;;;2.23;1.47;;;6.10;99.90;;;;;;4975660;28;20226;-46
2022/04/08 08:07:47;;;;;;;6.73;1.97;;;6.00;99.90;;;;;;4969414;28;20230;-46
2022/04/08 08:10:19;;;;;;;2.73;1.63;;;6.10;99.90;;;;;;4983049;28;20585;-46
2022/04/08 08:12:46;;;;;;;8.63;2.13;;;6.10;99.90;;;;;;4979180;28;20203;-46
2022/04/08 08:15:15;;;;;;;3.70;1.40;;;6.20;99.90;;;;;;4983006;28;20227;-47
2022/04/08 08:17:42;;;;;;;3.47;1.33;;;6.30;99.90;;;;;;4976088;28;20380;-47
2022/04/08 08:20:12;;;;;;;2.03;1.20;;;6.40;99.90;;;;;;4982594;28;20291;-46
2022/04/08 08:22:39;;;;;;;6.47;1.70;;;6.40;99.90;;;;;;4970329;28;20206;-46
2022/04/08 08:25:07;;;;;;;4.93;1.73;;;6.60;99.90;;;;;;4993252;28;20241;-47
2022/04/08 08:27:38;;;;;;;5.00;1.30;;;6.70;99.90;;;;;;4982085;28;20226;-47
2022/04/08 08:30:07;;;;;;;3.63;1.83;;;6.60;99.90;;;;;;4996343;28;20237;-47
2022/04/08 08:32:34;;;;;;;2.83;1.30;;;6.50;99.90;;;;;;4980425;28;20401;-45
2022/04/08 08:35:01;;;;;;;3.00;1.23;;;6.40;99.90;;;;;;4976519;28;20342;-46
2022/04/08 08:37:30;;;;;;;1.37;1.20;;;6.50;99.90;;;;;;4977418;28;20213;-45
2022/04/08 08:39:56;;;;;;;4.97;1.33;;;6.40;99.90;;;;;;4964608;28;20208;-46
2022/04/08 08:42:25;;;;;;;4.07;1.27;;;6.40;99.90;;;;;;4964127;28;20215;-46
2022/04/08 08:44:52;;;;;;;4.27;1.07;;;6.30;99.90;;;;;;4971497;28;20304;-50
2022/04/08 08:47:19;;;;;;;3.23;1.30;;;6.20;99.90;;;;;;4978287;28;20294;-45
2022/04/08 08:49:50;;;;;;;1.67;1.10;;;6.30;99.90;;;;;;4978415;28;20219;-52
2022/04/08 08:52:19;;;;;;;3.67;1.23;;;6.30;99.90;;;;;;4985921;28;20701;-48
2022/04/08 08:54:47;;;;;;;4.97;1.40;;;6.50;99.90;;;;;;4970909;28;20295;-49
2022/04/08 08:57:16;;;;;;;2.33;1.43;;;6.70;99.90;;;;;;4974088;28;23037;-43
2022/04/08 08:59:44;;;;;;;6.53;2.03;;;6.70;99.90;;;;;;4985600;28;20287;-45
2022/04/08 09:02:12;;;;;;;4.77;1.50;;;6.80;99.90;;;;;;4972099;28;20209;-46
2022/04/08 09:04:43;;;;;;;4.13;1.47;;;6.90;99.90;;;;;;4986728;28;20228;-45
2022/04/08 09:07:21;;;;;;;9.53;1.40;;;6.90;99.90;;;;;;4991331;28;20218;-45
2022/04/08 09:09:52;;;;;;;2.03;1.57;;;6.90;99.90;;;;;;4993858;28;20632;-44
2022/04/08 09:12:19;;;;;;;4.70;1.60;;;7.00;99.90;;;;;;4991583;28;20206;-46
2022/04/08 09:14:50;;;;;;;3.43;1.70;;;7.10;99.90;;;;;;4998333;28;20261;-45
2022/04/08 09:17:18;;;;;;;3.40;1.40;;;7.10;99.90;;;;;;4996147;28;20195;-45
2022/04/08 09:19:48;;;;;;;5.60;1.70;;;7.30;99.90;;;;;;4968174;28;20211;-45
2022/04/08 09:22:15;;;;;;;6.70;1.67;;;7.40;99.90;;;;;;4995925;28;20201;-45
2022/04/08 09:24:43;;;;;;;5.07;1.43;;;7.40;99.90;;;;;;4994885;28;20312;-46
2022/04/08 09:27:11;;;;;;;6.73;1.33;;;7.30;99.90;;;;;;4970519;28;23145;-46
2022/04/08 09:29:42;;;;;;;1.40;0.60;;;7.00;99.90;;;;;;5001956;28;20535;-45
2022/04/08 09:32:09;;;;;;;1.30;0.73;;;6.50;99.90;;;;;;4994169;28;20290;-46
2022/04/08 09:34:37;;;;;;;6.73;1.13;;;6.30;99.90;;;;;;4972876;28;20253;-46
2022/04/08 09:37:07;;;;;;;5.60;1.23;;;6.30;99.90;;;;;;4986637;28;20207;-46
2022/04/08 09:39:34;;;;;;;2.20;1.10;;;6.40;99.90;;;;;;4996133;28;20206;-45
2022/04/08 09:42:03;;;;;;;3.47;1.30;;;6.60;99.90;;;;;;4970949;28;20557;-46
2022/04/08 09:44:35;;;;;;;1.40;1.20;;;6.90;99.90;;;;;;5002577;28;20256;-46
2022/04/08 09:47:02;;;;;;;3.93;1.27;;;6.90;99.90;;;;;;4996904;28;20239;-46
2022/04/08 09:49:29;;;;;;;1.90;1.10;;;6.90;99.90;;;;;;4974121;28;20414;-45
2022/04/08 09:51:57;;;;;;;7.40;1.37;;;7.00;99.90;;;;;;4980726;28;20213;-46
2022/04/08 09:54:28;;;;;;;3.83;1.23;;;6.90;99.90;;;;;;5000638;28;20298;-46
2022/04/08 09:56:57;;;;;;;1.80;0.90;;;6.90;99.90;;;;;;4977740;28;20208;-46
2022/04/08 09:59:29;;;;;;;3.53;1.00;;;6.90;99.90;;;;;;4992624;28;20292;-46
2022/04/08 10:01:58;;;;;;;1.50;1.00;;;7.20;99.90;;;;;;5001270;28;20512;-46
2022/04/08 10:04:25;;;;;;;4.30;1.30;;;7.40;99.90;;;;;;4983316;28;20241;-47
2022/04/08 10:06:52;;;;;;;4.27;1.40;;;7.60;99.90;;;;;;4987517;28;20236;-46
2022/04/08 10:09:20;;;;;;;3.27;1.17;;;7.80;99.90;;;;;;4984952;28;20284;-46
2022/04/08 10:11:58;;;;;;;2.07;1.00;;;7.80;99.90;;;;;;4988208;28;20255;-45
2022/04/08 10:14:35;;;;;;;4.30;1.87;;;7.70;99.90;;;;;;4989578;28;20301;-45
2022/04/08 10:17:04;;;;;;;4.20;1.40;;;7.60;99.90;;;;;;4999063;28;20299;-47
2022/04/08 10:19:32;;;;;;;1.47;0.80;;;7.40;99.90;;;;;;4975261;28;20239;-45
2022/04/08 10:21:59;;;;;;;1.93;0.83;;;7.20;99.90;;;;;;4984554;28;20233;-45
2022/04/08 10:24:28;;;;;;;1.23;1.00;;;7.00;99.90;;;;;;4998130;28;20274;-46
2022/04/08 10:27:01;;;;;;;1.57;0.90;;;6.90;99.90;;;;;;4983841;28;20214;-47
2022/04/08 10:29:29;;;;;;;4.30;0.80;;;6.90;99.90;;;;;;4972110;28;20211;-46
2022/04/08 10:31:57;;;;;;;1.23;0.80;;;6.90;99.90;;;;;;4969096;28;20220;-46
2022/04/08 10:34:26;;;;;;;0.87;0.67;;;6.80;99.90;;;;;;4990343;28;20230;-46
2022/04/08 10:36:53;;;;;;;2.20;1.03;;;6.90;99.90;;;;;;4970471;28;20282;-46
2022/04/08 10:39:22;;;;;;;3.60;1.10;;;6.80;99.90;;;;;;4986317;28;20211;-47
2022/04/08 10:41:51;;;;;;;1.37;0.97;;;6.70;99.90;;;;;;4979840;28;20331;-46
2022/04/08 10:44:30;;;;;;;2.07;0.67;;;6.70;99.90;;;;;;4967094;28;20232;-46
2022/04/08 10:46:59;;;;;;;2.30;0.87;;;6.80;99.90;;;;;;4999363;28;20199;-46
2022/04/08 10:49:27;;;;;;;2.30;0.73;;;7.00;99.90;;;;;;4977057;28;20225;-46
2022/04/08 10:51:54;;;;;;;3.10;0.50;;;7.10;99.90;;;;;;4976874;28;20468;-46
2022/04/08 10:54:33;;;;;;;3.33;1.00;;;7.20;99.90;;;;;;4973885;28;20306;-45
2022/04/08 10:57:00;;;;;;;2.33;1.23;;;7.30;99.90;;;;;;4980910;28;20279;-46
2022/04/08 10:59:27;;;;;;;1.37;1.20;;;7.40;99.90;;;;;;4971300;28;20209;-46
2022/04/08 11:02:00;;;;;;;1.50;0.80;;;7.50;99.90;;;;;;4990657;28;20197;-46
2022/04/08 11:04:30;;;;;;;4.77;1.07;;;7.70;99.90;;;;;;4977840;28;20239;-46
2022/04/08 11:07:03;;;;;;;7.17;1.50;;;7.80;99.90;;;;;;4980153;28;20210;-46
2022/04/08 11:09:31;;;;;;;3.17;0.80;;;7.70;99.90;;;;;;4964708;28;20233;-46
2022/04/08 11:11:58;;;;;;;6.77;1.73;;;7.70;99.90;;;;;;4976474;28;20213;-44
2022/04/08 11:14:27;;;;;;;2.47;1.00;;;7.80;99.90;;;;;;4957837;28;20241;-46
2022/04/08 11:16:54;;;;;;;2.10;1.10;;;7.90;99.90;;;;;;4978246;28;20320;-45
2022/04/08 11:19:22;;;;;;;3.37;1.10;;;7.80;99.90;;;;;;4987256;28;20207;-46
2022/04/08 11:21:51;;;;;;;2.93;1.00;;;7.80;99.90;;;;;;4984288;28;20286;-45
2022/04/08 11:24:19;;;;;;;4.13;1.60;;;7.80;99.90;;;;;;4967670;28;20348;-46
2022/04/08 11:26:48;;;;;;;2.20;1.23;;;7.90;99.90;;;;;;4983932;28;20244;-46
2022/04/08 11:29:16;;;;;;;2.10;1.37;;;7.90;99.90;;;;;;4972379;28;20231;-46
2022/04/08 11:31:44;;;;;;;3.63;1.80;;;8.00;99.90;;;;;;4981798;28;20759;-45
2022/04/08 11:34:13;;;;;;;2.03;1.10;;;8.00;99.90;;;;;;4990563;28;20242;-46
2022/04/08 11:36:40;;;;;;;3.10;1.23;;;8.10;99.90;;;;;;4968915;28;20303;-46
2022/04/08 11:39:10;;;;;;;2.50;1.20;;;8.00;99.90;;;;;;4973036;28;20212;-46
2022/04/08 11:41:38;;;;;;;3.03;1.10;;;8.00;99.90;;;;;;4985501;28;20254;-46
2022/04/08 11:44:07;;;;;;;4.10;1.50;;;8.00;99.90;;;;;;4960168;28;20234;-47
2022/04/08 11:46:34;;;;;;;2.53;1.47;;;8.00;99.90;;;;;;4963650;28;20219;-46
2022/04/08 11:49:04;;;;;;;3.80;1.47;;;8.00;99.90;;;;;;4986650;28;20251;-46
2022/04/08 11:51:31;;;;;;;2.47;0.90;;;7.90;99.90;;;;;;4971101;28;20221;-47
2022/04/08 11:54:02;;;;;;;1.70;0.73;;;7.70;99.90;;;;;;4980327;28;20234;-46
2022/04/08 11:56:30;;;;;;;3.50;0.80;;;7.50;99.90;;;;;;4983615;28;20212;-46
2022/04/08 11:59:00;;;;;;;1.30;0.50;;;7.40;99.90;;;;;;4976439;28;20281;-46
2022/04/08 12:01:30;;;;;;;3.10;1.03;;;7.40;99.90;;;;;;4936615;28;23145;-46
2022/04/08 12:04:01;;;;;;;1.90;0.90;;;7.50;99.90;;;;;;4982601;28;20765;-49
2022/04/08 12:06:40;;;;;;;2.33;0.97;;;7.60;99.90;;;;;;4973917;28;20218;-46
2022/04/08 12:09:07;;;;;;;1.80;0.80;;;7.70;99.90;;;;;;4964217;28;20236;-47
2022/04/08 12:11:37;;;;;;;4.20;1.50;;;7.90;99.90;;;;;;4976885;28;20877;-45
2022/04/08 12:14:08;;;;;;;2.73;1.13;;;8.00;99.90;;;;;;4964632;28;20336;-47
2022/04/08 12:16:35;;;;;;;4.07;1.43;;;8.10;99.90;;;;;;4965019;28;20214;-45
2022/04/08 12:19:03;;;;;;;3.83;1.10;;;8.10;99.90;;;;;;4982869;28;20208;-47
2022/04/08 12:21:31;;;;;;;3.33;1.40;;;8.20;99.90;;;;;;4976708;28;20211;-45
2022/04/08 12:24:00;;;;;;;2.43;1.40;;;8.30;99.90;;;;;;4979935;28;20845;-45
2022/04/08 12:26:27;;;;;;;3.50;1.10;;;8.40;99.90;;;;;;4972798;28;20206;-46
2022/04/08 12:29:06;;;;;;;1.47;1.00;;;8.50;99.90;;;;;;4976772;28;20227;-46
2022/04/08 12:31:34;;;;;;;3.20;1.17;;;8.70;99.90;;;;;;4952091;28;20479;-45
2022/04/08 12:34:02;;;;;;;1.33;0.97;;;8.60;99.90;;;;;;4987753;28;20234;-46
2022/04/08 12:36:29;;;;;;;4.07;1.73;;;8.70;99.90;;;;;;4954156;28;20266;-45
2022/04/08 12:38:57;;;;;;;8.40;1.30;;;8.60;99.90;;;;;;4973269;28;20282;-46
2022/04/08 12:41:24;;;;;;;3.10;1.30;;;8.60;99.90;;;;;;4958651;28;20215;-48
2022/04/08 12:43:54;;;;;;;2.67;1.17;;;8.70;99.90;;;;;;4963643;28;20335;-47
2022/04/08 12:46:23;;;;;;;1.63;0.93;;;8.80;99.90;;;;;;4957653;28;20241;-50
2022/04/08 12:48:50;;;;;;;5.13;1.17;;;8.80;99.90;;;;;;4976091;28;20633;-45
2022/04/08 12:51:17;;;;;;;3.87;1.40;;;8.70;99.90;;;;;;4982776;28;20267;-46
2022/04/08 12:53:44;;;;;;;3.43;1.60;;;8.70;99.90;;;;;;4970329;28;20254;-46
2022/04/08 12:56:11;;;;;;;3.27;1.30;;;8.60;99.90;;;;;;4984876;28;20206;-46
2022/04/08 12:58:38;;;;;;;4.00;1.30;;;8.60;99.90;;;;;;4973015;28;20194;-46
2022/04/08 13:01:05;;;;;;;3.23;1.20;;;8.70;99.90;;;;;;4964418;28;20210;-46